sensor_id;sensor_type;location;lat;lon;timestamp;temperature;humidity
42095;DHT22;27753;55.724;37.612;2023-07-28T00:02:18;21.50;99.90
42095;DHT22;27753;55.724;37.612;2023-07-28T00:04:44;21.60;99.90
42095;DHT22;27753;55.724;37.612;2023-07-28T00:07:10;21.60;99.90
42095;DHT22;27753;55.724;37.612;2023-07-28T00:09:36;21.50;99.90
42095;DHT22;27753;55.724;37.612;2023-07-28T00:12:02;21.60;99.90
42095;DHT22;27753;55.724;37.612;2023-07-28T00:14:28;21.60;99.90
42095;DHT22;27753;55.724;37.612;2023-07-28T00:16:56;21.60;99.90
42095;DHT22;27753;55.724;37.612;2023-07-28T00:19:22;21.60;99.90
42095;DHT22;27753;55.724;37.612;2023-07-28T00:21:49;21.50;99.90
42095;DHT22;27753;55.724;37.612;2023-07-28T00:24:15;21.50;99.90
42095;DHT22;27753;55.724;37.612;2023-07-28T00:26:42;21.50;99.90
42095;DHT22;27753;55.724;37.612;2023-07-28T00:29:07;21.40;99.90
42095;DHT22;27753;55.724;37.612;2023-07-28T00:31:34;21.40;99.90
42095;DHT22;27753;55.724;37.612;2023-07-28T00:34:01;21.50;99.90
42095;DHT22;27753;55.724;37.612;2023-07-28T00:36:27;21.50;99.90
42095;DHT22;27753;55.724;37.612;2023-07-28T00:38:53;21.40;99.90
42095;DHT22;27753;55.724;37.612;2023-07-28T00:41:19;21.40;99.90
42095;DHT22;27753;55.724;37.612;2023-07-28T00:43:45;21.40;99.90
42095;DHT22;27753;55.724;37.612;2023-07-28T00:46:11;21.30;99.90
42095;DHT22;27753;55.724;37.612;2023-07-28T00:48:37;21.30;99.90
42095;DHT22;27753;55.724;37.612;2023-07-28T00:51:04;21.20;99.90
42095;DHT22;27753;55.724;37.612;2023-07-28T00:53:30;21.20;99.90
42095;DHT22;27753;55.724;37.612;2023-07-28T00:55:56;21.20;99.90
42095;DHT22;27753;55.724;37.612;2023-07-28T00:58:23;21.10;99.90
42095;DHT22;27753;55.724;37.612;2023-07-28T01:00:49;21.10;99.90
42095;DHT22;27753;55.724;37.612;2023-07-28T01:03:17;21.10;99.90
42095;DHT22;27753;55.724;37.612;2023-07-28T01:06:11;21.10;99.90
42095;DHT22;27753;55.724;37.612;2023-07-28T01:09:15;21.10;99.90
42095;DHT22;27753;55.724;37.612;2023-07-28T01:11:56;21.10;99.90
42095;DHT22;27753;55.724;37.612;2023-07-28T01:14:22;21.10;99.90
42095;DHT22;27753;55.724;37.612;2023-07-28T01:16:48;21.00;99.90
42095;DHT22;27753;55.724;37.612;2023-07-28T01:19:16;21.00;99.90
42095;DHT22;27753;55.724;37.612;2023-07-28T01:21:48;21.00;99.90
42095;DHT22;27753;55.724;37.612;2023-07-28T01:24:55;21.00;99.90
42095;DHT22;27753;55.724;37.612;2023-07-28T01:27:21;21.10;99.90
42095;DHT22;27753;55.724;37.612;2023-07-28T01:29:48;21.00;99.90
42095;DHT22;27753;55.724;37.612;2023-07-28T01:32:14;21.00;99.90
42095;DHT22;27753;55.724;37.612;2023-07-28T01:34:40;21.00;99.90
42095;DHT22;27753;55.724;37.612;2023-07-28T01:37:06;21.10;99.90
42095;DHT22;27753;55.724;37.612;2023-07-28T01:39:32;21.20;99.90
42095;DHT22;27753;55.724;37.612;2023-07-28T01:41:59;21.20;99.90
42095;DHT22;27753;55.724;37.612;2023-07-28T01:44:24;21.20;99.90
42095;DHT22;27753;55.724;37.612;2023-07-28T01:46:50;21.20;99.90
42095;DHT22;27753;55.724;37.612;2023-07-28T01:49:16;21.20;99.90
42095;DHT22;27753;55.724;37.612;2023-07-28T01:51:42;21.20;99.90
42095;DHT22;27753;55.724;37.612;2023-07-28T01:54:08;21.20;99.90
42095;DHT22;27753;55.724;37.612;2023-07-28T01:56:34;21.20;99.90
42095;DHT22;27753;55.724;37.612;2023-07-28T01:59:00;21.20;99.90
42095;DHT22;27753;55.724;37.612;2023-07-28T02:01:26;21.20;99.90
42095;DHT22;27753;55.724;37.612;2023-07-28T02:03:52;21.20;99.90
42095;DHT22;27753;55.724;37.612;2023-07-28T02:06:18;21.20;99.90
42095;DHT22;27753;55.724;37.612;2023-07-28T02:08:44;21.20;99.90
42095;DHT22;27753;55.724;37.612;2023-07-28T02:11:09;21.30;99.90
42095;DHT22;27753;55.724;37.612;2023-07-28T02:13:35;21.30;99.90
42095;DHT22;27753;55.724;37.612;2023-07-28T02:16:01;21.30;99.90
42095;DHT22;27753;55.724;37.612;2023-07-28T02:18:27;21.30;99.90
42095;DHT22;27753;55.724;37.612;2023-07-28T02:20:53;21.30;99.90
42095;DHT22;27753;55.724;37.612;2023-07-28T02:23:19;21.30;99.90
42095;DHT22;27753;55.724;37.612;2023-07-28T02:25:45;21.30;99.90
42095;DHT22;27753;55.724;37.612;2023-07-28T02:28:11;21.30;99.90
42095;DHT22;27753;55.724;37.612;2023-07-28T02:30:37;21.30;99.90
42095;DHT22;27753;55.724;37.612;2023-07-28T02:33:03;21.30;99.90
42095;DHT22;27753;55.724;37.612;2023-07-28T02:35:29;21.40;99.90
42095;DHT22;27753;55.724;37.612;2023-07-28T02:37:57;21.40;99.90
42095;DHT22;27753;55.724;37.612;2023-07-28T02:40:23;21.40;99.90
42095;DHT22;27753;55.724;37.612;2023-07-28T02:42:49;21.40;99.90
42095;DHT22;27753;55.724;37.612;2023-07-28T02:45:15;21.40;99.90
42095;DHT22;27753;55.724;37.612;2023-07-28T02:47:41;21.30;99.90
42095;DHT22;27753;55.724;37.612;2023-07-28T02:50:07;21.30;99.90
42095;DHT22;27753;55.724;37.612;2023-07-28T02:52:33;21.30;99.90
42095;DHT22;27753;55.724;37.612;2023-07-28T02:54:59;21.30;99.90
42095;DHT22;27753;55.724;37.612;2023-07-28T02:57:25;21.40;99.90
42095;DHT22;27753;55.724;37.612;2023-07-28T02:59:51;21.40;99.90
42095;DHT22;27753;55.724;37.612;2023-07-28T03:02:17;21.50;99.90
42095;DHT22;27753;55.724;37.612;2023-07-28T03:04:42;21.50;99.90
42095;DHT22;27753;55.724;37.612;2023-07-28T03:07:08;21.50;99.90
42095;DHT22;27753;55.724;37.612;2023-07-28T03:09:35;21.50;99.90
42095;DHT22;27753;55.724;37.612;2023-07-28T03:12:01;21.50;99.90
42095;DHT22;27753;55.724;37.612;2023-07-28T03:14:26;21.50;99.90
42095;DHT22;27753;55.724;37.612;2023-07-28T03:16:54;21.50;99.90
42095;DHT22;27753;55.724;37.612;2023-07-28T03:19:20;21.40;99.90
42095;DHT22;27753;55.724;37.612;2023-07-28T03:21:45;21.40;99.90
42095;DHT22;27753;55.724;37.612;2023-07-28T03:24:11;21.40;99.90
42095;DHT22;27753;55.724;37.612;2023-07-28T03:26:37;21.40;99.90
42095;DHT22;27753;55.724;37.612;2023-07-28T03:29:03;21.40;99.90
42095;DHT22;27753;55.724;37.612;2023-07-28T03:31:29;21.50;99.90
42095;DHT22;27753;55.724;37.612;2023-07-28T03:33:55;21.70;99.90
42095;DHT22;27753;55.724;37.612;2023-07-28T03:36:21;21.70;99.90
42095;DHT22;27753;55.724;37.612;2023-07-28T03:38:47;21.70;99.90
42095;DHT22;27753;55.724;37.612;2023-07-28T03:41:13;21.60;99.90
42095;DHT22;27753;55.724;37.612;2023-07-28T03:43:40;21.50;99.90
42095;DHT22;27753;55.724;37.612;2023-07-28T03:46:07;21.40;99.90
42095;DHT22;27753;55.724;37.612;2023-07-28T03:48:33;21.20;99.90
42095;DHT22;27753;55.724;37.612;2023-07-28T03:50:58;20.60;99.90
42095;DHT22;27753;55.724;37.612;2023-07-28T03:53:24;20.40;99.90
42095;DHT22;27753;55.724;37.612;2023-07-28T03:55:50;20.30;99.90
42095;DHT22;27753;55.724;37.612;2023-07-28T03:58:16;20.20;99.90
42095;DHT22;27753;55.724;37.612;2023-07-28T04:00:42;20.10;99.90
42095;DHT22;27753;55.724;37.612;2023-07-28T04:03:08;20.00;99.90
42095;DHT22;27753;55.724;37.612;2023-07-28T04:05:36;19.90;99.90
42095;DHT22;27753;55.724;37.612;2023-07-28T04:08:02;19.90;99.90
42095;DHT22;27753;55.724;37.612;2023-07-28T04:10:28;19.90;99.90
42095;DHT22;27753;55.724;37.612;2023-07-28T04:12:54;19.90;99.90
42095;DHT22;27753;55.724;37.612;2023-07-28T04:15:20;19.90;99.90
42095;DHT22;27753;55.724;37.612;2023-07-28T04:17:46;19.90;99.90
42095;DHT22;27753;55.724;37.612;2023-07-28T04:20:12;20.00;99.90
42095;DHT22;27753;55.724;37.612;2023-07-28T04:22:38;20.00;99.90
42095;DHT22;27753;55.724;37.612;2023-07-28T04:25:04;19.90;99.90
42095;DHT22;27753;55.724;37.612;2023-07-28T04:27:30;19.90;99.90
42095;DHT22;27753;55.724;37.612;2023-07-28T04:29:56;20.00;99.90
42095;DHT22;27753;55.724;37.612;2023-07-28T04:32:22;20.00;99.90
42095;DHT22;27753;55.724;37.612;2023-07-28T04:34:47;20.00;99.90
42095;DHT22;27753;55.724;37.612;2023-07-28T04:37:13;19.90;99.90
42095;DHT22;27753;55.724;37.612;2023-07-28T04:39:39;19.90;99.90
42095;DHT22;27753;55.724;37.612;2023-07-28T04:42:05;19.90;99.90
42095;DHT22;27753;55.724;37.612;2023-07-28T04:44:31;20.00;99.90
42095;DHT22;27753;55.724;37.612;2023-07-28T04:46:57;20.10;99.90
42095;DHT22;27753;55.724;37.612;2023-07-28T04:49:23;20.20;99.90
42095;DHT22;27753;55.724;37.612;2023-07-28T04:51:49;20.30;99.90
42095;DHT22;27753;55.724;37.612;2023-07-28T04:54:15;20.40;99.90
42095;DHT22;27753;55.724;37.612;2023-07-28T04:56:41;20.40;99.90
42095;DHT22;27753;55.724;37.612;2023-07-28T04:59:07;20.40;99.90
42095;DHT22;27753;55.724;37.612;2023-07-28T05:01:33;20.50;99.90
42095;DHT22;27753;55.724;37.612;2023-07-28T05:03:59;20.70;99.90
42095;DHT22;27753;55.724;37.612;2023-07-28T05:06:25;20.80;99.90
42095;DHT22;27753;55.724;37.612;2023-07-28T05:08:51;21.00;99.90
42095;DHT22;27753;55.724;37.612;2023-07-28T05:11:17;21.20;99.90
42095;DHT22;27753;55.724;37.612;2023-07-28T05:13:43;21.40;99.90
42095;DHT22;27753;55.724;37.612;2023-07-28T05:16:09;21.50;99.90
42095;DHT22;27753;55.724;37.612;2023-07-28T05:18:35;21.50;99.90
42095;DHT22;27753;55.724;37.612;2023-07-28T05:21:02;21.60;99.90
42095;DHT22;27753;55.724;37.612;2023-07-28T05:23:28;21.70;99.90
42095;DHT22;27753;55.724;37.612;2023-07-28T05:25:54;21.60;99.90
42095;DHT22;27753;55.724;37.612;2023-07-28T05:28:20;21.60;99.90
42095;DHT22;27753;55.724;37.612;2023-07-28T05:30:46;21.60;99.90
42095;DHT22;27753;55.724;37.612;2023-07-28T05:33:12;21.60;99.90
42095;DHT22;27753;55.724;37.612;2023-07-28T05:35:37;21.80;99.90
42095;DHT22;27753;55.724;37.612;2023-07-28T05:38:03;21.80;99.90
42095;DHT22;27753;55.724;37.612;2023-07-28T05:40:29;22.10;99.90
42095;DHT22;27753;55.724;37.612;2023-07-28T05:42:55;22.60;99.90
42095;DHT22;27753;55.724;37.612;2023-07-28T05:45:21;23.00;99.90
42095;DHT22;27753;55.724;37.612;2023-07-28T05:47:47;23.10;99.90
42095;DHT22;27753;55.724;37.612;2023-07-28T05:50:13;22.70;99.90
42095;DHT22;27753;55.724;37.612;2023-07-28T05:52:39;22.30;99.90
42095;DHT22;27753;55.724;37.612;2023-07-28T05:55:05;22.10;99.90
42095;DHT22;27753;55.724;37.612;2023-07-28T05:57:31;21.90;99.90
42095;DHT22;27753;55.724;37.612;2023-07-28T05:59:57;22.00;99.90
42095;DHT22;27753;55.724;37.612;2023-07-28T06:02:23;22.10;99.90
42095;DHT22;27753;55.724;37.612;2023-07-28T06:05:01;22.20;99.90
42095;DHT22;27753;55.724;37.612;2023-07-28T06:07:30;22.30;99.90
42095;DHT22;27753;55.724;37.612;2023-07-28T06:09:56;22.30;99.90
42095;DHT22;27753;55.724;37.612;2023-07-28T06:12:22;22.30;99.90
42095;DHT22;27753;55.724;37.612;2023-07-28T06:14:48;22.30;99.90
42095;DHT22;27753;55.724;37.612;2023-07-28T06:17:14;22.60;99.90
42095;DHT22;27753;55.724;37.612;2023-07-28T06:19:40;22.70;99.90
42095;DHT22;27753;55.724;37.612;2023-07-28T06:22:06;22.60;99.90
42095;DHT22;27753;55.724;37.612;2023-07-28T06:24:32;22.80;99.90
42095;DHT22;27753;55.724;37.612;2023-07-28T06:26:58;23.60;99.90
42095;DHT22;27753;55.724;37.612;2023-07-28T06:29:24;24.60;99.90
42095;DHT22;27753;55.724;37.612;2023-07-28T06:31:50;24.40;99.90
42095;DHT22;27753;55.724;37.612;2023-07-28T06:34:16;23.90;99.90
42095;DHT22;27753;55.724;37.612;2023-07-28T06:36:42;23.40;99.90
42095;DHT22;27753;55.724;37.612;2023-07-28T06:39:08;22.80;99.90
42095;DHT22;27753;55.724;37.612;2023-07-28T06:41:34;22.60;99.90
42095;DHT22;27753;55.724;37.612;2023-07-28T06:44:00;22.40;99.90
42095;DHT22;27753;55.724;37.612;2023-07-28T06:46:28;22.30;99.90
42095;DHT22;27753;55.724;37.612;2023-07-28T06:48:54;22.20;99.90
42095;DHT22;27753;55.724;37.612;2023-07-28T06:51:19;21.90;99.90
42095;DHT22;27753;55.724;37.612;2023-07-28T06:53:45;21.70;99.90
42095;DHT22;27753;55.724;37.612;2023-07-28T06:56:11;21.50;99.90
42095;DHT22;27753;55.724;37.612;2023-07-28T06:58:37;21.00;99.90
42095;DHT22;27753;55.724;37.612;2023-07-28T07:01:03;20.60;99.90
42095;DHT22;27753;55.724;37.612;2023-07-28T07:03:29;20.40;99.90
42095;DHT22;27753;55.724;37.612;2023-07-28T07:05:55;20.20;99.90
42095;DHT22;27753;55.724;37.612;2023-07-28T07:08:21;20.10;99.90
42095;DHT22;27753;55.724;37.612;2023-07-28T07:10:48;20.10;99.90
42095;DHT22;27753;55.724;37.612;2023-07-28T07:13:15;20.10;99.90
42095;DHT22;27753;55.724;37.612;2023-07-28T07:15:41;20.20;99.90
42095;DHT22;27753;55.724;37.612;2023-07-28T07:18:08;20.20;99.90
42095;DHT22;27753;55.724;37.612;2023-07-28T07:20:35;20.30;99.90
42095;DHT22;27753;55.724;37.612;2023-07-28T07:23:01;20.30;99.90
42095;DHT22;27753;55.724;37.612;2023-07-28T07:25:27;20.30;99.90
42095;DHT22;27753;55.724;37.612;2023-07-28T07:27:53;20.50;99.90
42095;DHT22;27753;55.724;37.612;2023-07-28T07:30:19;20.60;99.90
42095;DHT22;27753;55.724;37.612;2023-07-28T07:32:45;20.60;99.90
42095;DHT22;27753;55.724;37.612;2023-07-28T07:35:11;20.60;99.90
42095;DHT22;27753;55.724;37.612;2023-07-28T07:37:38;20.70;99.90
42095;DHT22;27753;55.724;37.612;2023-07-28T07:40:11;20.90;99.90
42095;DHT22;27753;55.724;37.612;2023-07-28T07:42:47;20.80;99.90
42095;DHT22;27753;55.724;37.612;2023-07-28T07:45:14;20.60;99.90
42095;DHT22;27753;55.724;37.612;2023-07-28T07:47:41;20.50;99.90
42095;DHT22;27753;55.724;37.612;2023-07-28T07:50:08;20.50;99.90
42095;DHT22;27753;55.724;37.612;2023-07-28T07:52:35;20.50;99.90
42095;DHT22;27753;55.724;37.612;2023-07-28T07:55:02;20.50;99.90
42095;DHT22;27753;55.724;37.612;2023-07-28T07:57:29;20.60;99.90
42095;DHT22;27753;55.724;37.612;2023-07-28T07:59:58;20.90;99.90
42095;DHT22;27753;55.724;37.612;2023-07-28T08:02:24;21.20;99.90
42095;DHT22;27753;55.724;37.612;2023-07-28T08:04:53;21.60;99.90
42095;DHT22;27753;55.724;37.612;2023-07-28T08:07:19;22.30;99.90
42095;DHT22;27753;55.724;37.612;2023-07-28T08:09:48;23.10;99.90
42095;DHT22;27753;55.724;37.612;2023-07-28T08:12:23;24.10;99.90
42095;DHT22;27753;55.724;37.612;2023-07-28T08:14:50;25.10;99.90
42095;DHT22;27753;55.724;37.612;2023-07-28T08:17:16;25.90;99.90
42095;DHT22;27753;55.724;37.612;2023-07-28T08:19:45;27.30;99.90
42095;DHT22;27753;55.724;37.612;2023-07-28T08:22:11;27.50;99.90
42095;DHT22;27753;55.724;37.612;2023-07-28T08:24:37;27.40;97.90
42095;DHT22;27753;55.724;37.612;2023-07-28T08:27:06;28.20;95.90
42095;DHT22;27753;55.724;37.612;2023-07-28T08:29:32;29.10;94.20
42095;DHT22;27753;55.724;37.612;2023-07-28T08:32:01;29.80;91.20
42095;DHT22;27753;55.724;37.612;2023-07-28T08:34:27;31.00;88.80
42095;DHT22;27753;55.724;37.612;2023-07-28T08:37:03;32.40;83.20
42095;DHT22;27753;55.724;37.612;2023-07-28T08:39:33;32.30;78.80
42095;DHT22;27753;55.724;37.612;2023-07-28T08:42:09;32.90;74.70
42095;DHT22;27753;55.724;37.612;2023-07-28T08:44:44;33.50;73.60
42095;DHT22;27753;55.724;37.612;2023-07-28T08:47:21;33.20;70.20
42095;DHT22;27753;55.724;37.612;2023-07-28T08:49:47;32.00;72.20
42095;DHT22;27753;55.724;37.612;2023-07-28T08:52:17;30.80;75.20
42095;DHT22;27753;55.724;37.612;2023-07-28T08:54:43;29.80;77.30
42095;DHT22;27753;55.724;37.612;2023-07-28T08:57:10;29.60;79.70
42095;DHT22;27753;55.724;37.612;2023-07-28T08:59:36;29.20;79.30
42095;DHT22;27753;55.724;37.612;2023-07-28T09:07:09;28.50;81.20
42095;DHT22;27753;55.724;37.612;2023-07-28T09:09:35;28.50;85.70
42095;DHT22;27753;55.724;37.612;2023-07-28T09:12:04;29.20;81.10
42095;DHT22;27753;55.724;37.612;2023-07-28T09:14:32;28.90;81.00
42095;DHT22;27753;55.724;37.612;2023-07-28T09:17:08;28.10;81.90
42095;DHT22;27753;55.724;37.612;2023-07-28T09:19:34;27.20;85.60
42095;DHT22;27753;55.724;37.612;2023-07-28T09:22:01;26.70;88.10
42095;DHT22;27753;55.724;37.612;2023-07-28T09:24:33;26.40;89.80
42095;DHT22;27753;55.724;37.612;2023-07-28T09:27:00;26.10;90.20
42095;DHT22;27753;55.724;37.612;2023-07-28T09:29:27;25.80;91.10
42095;DHT22;27753;55.724;37.612;2023-07-28T09:32:07;25.40;92.00
42095;DHT22;27753;55.724;37.612;2023-07-28T09:34:34;25.20;92.20
42095;DHT22;27753;55.724;37.612;2023-07-28T09:37:00;25.00;93.00
42095;DHT22;27753;55.724;37.612;2023-07-28T09:39:27;24.80;93.60
42095;DHT22;27753;55.724;37.612;2023-07-28T09:52:09;24.50;93.50
42095;DHT22;27753;55.724;37.612;2023-07-28T09:54:40;23.70;96.90
42095;DHT22;27753;55.724;37.612;2023-07-28T09:57:11;23.30;97.80
42095;DHT22;27753;55.724;37.612;2023-07-28T09:59:40;23.10;98.60
42095;DHT22;27753;55.724;37.612;2023-07-28T10:02:07;23.00;99.20
42095;DHT22;27753;55.724;37.612;2023-07-28T10:04:34;23.00;99.70
42095;DHT22;27753;55.724;37.612;2023-07-28T10:07:01;23.00;99.80
42095;DHT22;27753;55.724;37.612;2023-07-28T10:09:30;23.10;99.90
42095;DHT22;27753;55.724;37.612;2023-07-28T10:12:00;23.10;99.90
42095;DHT22;27753;55.724;37.612;2023-07-28T10:14:29;23.10;99.90
42095;DHT22;27753;55.724;37.612;2023-07-28T10:16:58;23.00;99.90
42095;DHT22;27753;55.724;37.612;2023-07-28T10:19:27;22.90;99.90
42095;DHT22;27753;55.724;37.612;2023-07-28T10:22:23;22.80;99.90
42095;DHT22;27753;55.724;37.612;2023-07-28T10:25:01;22.70;99.90
42095;DHT22;27753;55.724;37.612;2023-07-28T10:27:33;22.60;99.90
42095;DHT22;27753;55.724;37.612;2023-07-28T10:30:02;22.40;99.90
42095;DHT22;27753;55.724;37.612;2023-07-28T10:32:37;22.20;99.90
42095;DHT22;27753;55.724;37.612;2023-07-28T10:35:23;22.00;99.90
42095;DHT22;27753;55.724;37.612;2023-07-28T10:37:50;21.80;99.90
42095;DHT22;27753;55.724;37.612;2023-07-28T10:40:34;21.80;99.90
42095;DHT22;27753;55.724;37.612;2023-07-28T10:43:04;21.80;99.90
42095;DHT22;27753;55.724;37.612;2023-07-28T10:45:31;21.80;99.90
42095;DHT22;27753;55.724;37.612;2023-07-28T10:47:58;21.90;99.90
42095;DHT22;27753;55.724;37.612;2023-07-28T10:50:32;22.10;99.90
42095;DHT22;27753;55.724;37.612;2023-07-28T10:52:58;22.40;99.90
42095;DHT22;27753;55.724;37.612;2023-07-28T10:55:26;22.60;99.90
42095;DHT22;27753;55.724;37.612;2023-07-28T10:57:53;22.60;99.90
42095;DHT22;27753;55.724;37.612;2023-07-28T11:00:21;22.80;99.90
42095;DHT22;27753;55.724;37.612;2023-07-28T11:02:52;23.00;99.90
42095;DHT22;27753;55.724;37.612;2023-07-28T11:05:21;23.20;99.90
42095;DHT22;27753;55.724;37.612;2023-07-28T11:07:58;23.30;99.90
42095;DHT22;27753;55.724;37.612;2023-07-28T11:10:25;23.60;99.90
42095;DHT22;27753;55.724;37.612;2023-07-28T11:12:53;23.70;99.90
42095;DHT22;27753;55.724;37.612;2023-07-28T11:15:19;24.00;99.90
42095;DHT22;27753;55.724;37.612;2023-07-28T11:17:50;24.00;99.90
42095;DHT22;27753;55.724;37.612;2023-07-28T11:20:17;24.00;99.90
42095;DHT22;27753;55.724;37.612;2023-07-28T11:22:44;23.90;99.90
42095;DHT22;27753;55.724;37.612;2023-07-28T11:25:10;23.90;99.90
42095;DHT22;27753;55.724;37.612;2023-07-28T11:27:38;23.60;99.90
42095;DHT22;27753;55.724;37.612;2023-07-28T11:30:05;23.50;99.90
42095;DHT22;27753;55.724;37.612;2023-07-28T11:32:34;23.30;99.90
42095;DHT22;27753;55.724;37.612;2023-07-28T11:35:08;23.10;99.90
42095;DHT22;27753;55.724;37.612;2023-07-28T11:37:36;22.90;99.90
42095;DHT22;27753;55.724;37.612;2023-07-28T11:40:04;22.80;99.90
42095;DHT22;27753;55.724;37.612;2023-07-28T11:42:40;22.70;99.90
42095;DHT22;27753;55.724;37.612;2023-07-28T11:45:07;22.60;99.90
42095;DHT22;27753;55.724;37.612;2023-07-28T11:47:34;22.60;99.90
42095;DHT22;27753;55.724;37.612;2023-07-28T11:50:00;22.70;99.90
42095;DHT22;27753;55.724;37.612;2023-07-28T11:52:32;22.90;99.90
42095;DHT22;27753;55.724;37.612;2023-07-28T11:54:59;23.10;99.90
42095;DHT22;27753;55.724;37.612;2023-07-28T11:57:27;23.30;99.90
42095;DHT22;27753;55.724;37.612;2023-07-28T11:59:54;23.40;99.90
42095;DHT22;27753;55.724;37.612;2023-07-28T12:02:30;23.60;99.90
42095;DHT22;27753;55.724;37.612;2023-07-28T12:04:57;23.90;99.90
42095;DHT22;27753;55.724;37.612;2023-07-28T12:07:36;24.10;99.90
42095;DHT22;27753;55.724;37.612;2023-07-28T12:10:06;24.10;99.90
42095;DHT22;27753;55.724;37.612;2023-07-28T12:12:47;24.10;99.90
42095;DHT22;27753;55.724;37.612;2023-07-28T12:15:25;24.10;99.90
42095;DHT22;27753;55.724;37.612;2023-07-28T12:18:20;24.10;99.90
42095;DHT22;27753;55.724;37.612;2023-07-28T12:20:47;24.10;99.90
42095;DHT22;27753;55.724;37.612;2023-07-28T12:23:21;24.10;99.90
42095;DHT22;27753;55.724;37.612;2023-07-28T12:25:47;24.20;99.90
42095;DHT22;27753;55.724;37.612;2023-07-28T12:28:14;24.40;99.50
42095;DHT22;27753;55.724;37.612;2023-07-28T12:30:40;24.40;99.50
42095;DHT22;27753;55.724;37.612;2023-07-28T12:33:06;24.30;98.90
42095;DHT22;27753;55.724;37.612;2023-07-28T12:35:33;24.20;99.20
42095;DHT22;27753;55.724;37.612;2023-07-28T12:38:04;24.10;99.50
42095;DHT22;27753;55.724;37.612;2023-07-28T12:40:31;24.00;99.60
42095;DHT22;27753;55.724;37.612;2023-07-28T12:43:25;23.60;98.80
42095;DHT22;27753;55.724;37.612;2023-07-28T12:45:51;23.20;98.40
42095;DHT22;27753;55.724;37.612;2023-07-28T12:48:19;22.80;98.60
42095;DHT22;27753;55.724;37.612;2023-07-28T12:50:45;22.50;98.70
42095;DHT22;27753;55.724;37.612;2023-07-28T12:53:12;22.20;98.80
42095;DHT22;27753;55.724;37.612;2023-07-28T12:55:41;21.90;99.60
42095;DHT22;27753;55.724;37.612;2023-07-28T12:58:07;21.80;99.90
42095;DHT22;27753;55.724;37.612;2023-07-28T13:00:32;21.70;99.90
42095;DHT22;27753;55.724;37.612;2023-07-28T13:03:01;21.50;99.90
42095;DHT22;27753;55.724;37.612;2023-07-28T13:07:57;21.40;99.90
42095;DHT22;27753;55.724;37.612;2023-07-28T13:10:23;21.40;99.90
42095;DHT22;27753;55.724;37.612;2023-07-28T13:12:49;21.20;99.90
42095;DHT22;27753;55.724;37.612;2023-07-28T13:17:41;21.10;99.90
42095;DHT22;27753;55.724;37.612;2023-07-28T13:20:07;21.10;99.90
42095;DHT22;27753;55.724;37.612;2023-07-28T13:22:34;21.00;99.90
42095;DHT22;27753;55.724;37.612;2023-07-28T13:25:00;21.30;99.90
42095;DHT22;27753;55.724;37.612;2023-07-28T13:27:26;21.00;99.90
42095;DHT22;27753;55.724;37.612;2023-07-28T13:29:52;21.00;99.90
42095;DHT22;27753;55.724;37.612;2023-07-28T13:32:23;20.80;99.90
42095;DHT22;27753;55.724;37.612;2023-07-28T13:34:49;20.70;99.90
42095;DHT22;27753;55.724;37.612;2023-07-28T13:37:15;20.50;99.90
42095;DHT22;27753;55.724;37.612;2023-07-28T13:39:42;20.30;99.90
42095;DHT22;27753;55.724;37.612;2023-07-28T13:42:08;20.10;99.90
42095;DHT22;27753;55.724;37.612;2023-07-28T13:44:34;20.00;99.90
42095;DHT22;27753;55.724;37.612;2023-07-28T13:47:00;19.80;99.90
42095;DHT22;27753;55.724;37.612;2023-07-28T13:49:26;20.00;99.90
42095;DHT22;27753;55.724;37.612;2023-07-28T13:51:52;19.70;99.90
42095;DHT22;27753;55.724;37.612;2023-07-28T13:54:18;19.40;99.90
42095;DHT22;27753;55.724;37.612;2023-07-28T13:56:44;19.20;99.90
42095;DHT22;27753;55.724;37.612;2023-07-28T13:59:10;19.00;99.90
42095;DHT22;27753;55.724;37.612;2023-07-28T14:01:36;19.00;99.90
42095;DHT22;27753;55.724;37.612;2023-07-28T14:04:02;18.90;99.90
42095;DHT22;27753;55.724;37.612;2023-07-28T14:06:29;19.10;99.90
42095;DHT22;27753;55.724;37.612;2023-07-28T14:08:55;18.80;99.90
42095;DHT22;27753;55.724;37.612;2023-07-28T14:11:21;19.00;99.90
42095;DHT22;27753;55.724;37.612;2023-07-28T14:13:47;19.00;99.90
42095;DHT22;27753;55.724;37.612;2023-07-28T14:16:13;19.10;99.90
42095;DHT22;27753;55.724;37.612;2023-07-28T14:18:39;19.00;99.90
42095;DHT22;27753;55.724;37.612;2023-07-28T14:21:06;19.10;99.90
42095;DHT22;27753;55.724;37.612;2023-07-28T14:23:32;19.40;99.90
42095;DHT22;27753;55.724;37.612;2023-07-28T14:25:58;19.20;99.90
42095;DHT22;27753;55.724;37.612;2023-07-28T14:28:24;19.60;99.90
42095;DHT22;27753;55.724;37.612;2023-07-28T14:30:50;19.80;99.90
42095;DHT22;27753;55.724;37.612;2023-07-28T14:33:17;19.90;99.90
42095;DHT22;27753;55.724;37.612;2023-07-28T14:35:45;19.70;99.90
42095;DHT22;27753;55.724;37.612;2023-07-28T14:38:11;19.90;99.90
42095;DHT22;27753;55.724;37.612;2023-07-28T14:40:38;20.10;99.90
42095;DHT22;27753;55.724;37.612;2023-07-28T14:43:08;19.70;99.90
42095;DHT22;27753;55.724;37.612;2023-07-28T14:45:35;19.80;99.90
42095;DHT22;27753;55.724;37.612;2023-07-28T14:48:02;20.00;99.90
42095;DHT22;27753;55.724;37.612;2023-07-28T14:50:31;19.90;99.90
42095;DHT22;27753;55.724;37.612;2023-07-28T14:52:58;20.00;99.90
42095;DHT22;27753;55.724;37.612;2023-07-28T14:55:25;20.10;99.90
42095;DHT22;27753;55.724;37.612;2023-07-28T14:57:51;20.00;99.90
42095;DHT22;27753;55.724;37.612;2023-07-28T15:00:17;20.20;99.90
42095;DHT22;27753;55.724;37.612;2023-07-28T15:02:44;20.60;99.90
42095;DHT22;27753;55.724;37.612;2023-07-28T15:05:10;20.30;99.90
42095;DHT22;27753;55.724;37.612;2023-07-28T15:07:36;20.10;99.90
42095;DHT22;27753;55.724;37.612;2023-07-28T15:10:03;20.40;99.90
42095;DHT22;27753;55.724;37.612;2023-07-28T15:12:30;20.40;99.90
42095;DHT22;27753;55.724;37.612;2023-07-28T15:14:56;20.20;99.90
42095;DHT22;27753;55.724;37.612;2023-07-28T15:17:22;20.30;99.90
42095;DHT22;27753;55.724;37.612;2023-07-28T15:19:48;20.40;99.90
42095;DHT22;27753;55.724;37.612;2023-07-28T15:22:14;20.50;99.90
42095;DHT22;27753;55.724;37.612;2023-07-28T15:24:40;20.50;99.90
42095;DHT22;27753;55.724;37.612;2023-07-28T15:27:09;20.50;99.90
42095;DHT22;27753;55.724;37.612;2023-07-28T15:29:36;20.50;99.90
42095;DHT22;27753;55.724;37.612;2023-07-28T15:32:03;20.60;99.90
42095;DHT22;27753;55.724;37.612;2023-07-28T15:34:29;20.60;99.90
42095;DHT22;27753;55.724;37.612;2023-07-28T15:36:57;20.40;99.90
42095;DHT22;27753;55.724;37.612;2023-07-28T15:39:25;20.40;99.90